createdAt,value
2019-06-26T00:00:03.804Z,1.00
2019-06-26T00:01:03.790Z,0.90
2019-06-26T00:02:03.782Z,0.90
2019-06-26T00:03:03.788Z,1.00
2019-06-26T00:04:03.775Z,0.90
2019-06-26T00:05:03.774Z,0.80
2019-06-26T00:06:03.766Z,0.90
2019-06-26T00:07:03.756Z,0.90
2019-06-26T00:08:03.756Z,0.90
2019-06-26T00:09:03.752Z,0.80
2019-06-26T00:10:03.741Z,0.80
2019-06-26T00:11:03.737Z,0.80
2019-06-26T00:12:03.730Z,0.90
2019-06-26T00:13:03.723Z,1.10
2019-06-26T00:14:03.703Z,0.90
2019-06-26T00:15:03.699Z,0.90
2019-06-26T00:16:03.699Z,1.00
2019-06-26T00:17:03.700Z,1.00
2019-06-26T00:18:03.691Z,1.20
2019-06-26T00:19:03.679Z,0.90
2019-06-26T00:20:03.679Z,0.80
2019-06-26T00:21:03.684Z,1.00
2019-06-26T00:22:03.668Z,1.20
2019-06-26T00:23:03.653Z,0.90
2019-06-26T00:24:03.654Z,1.00
2019-06-26T00:25:03.650Z,0.80
2019-06-26T00:26:03.647Z,1.30
2019-06-26T00:27:03.644Z,1.00
2019-06-26T00:28:03.635Z,0.80
2019-06-26T00:29:03.631Z,0.90
2019-06-26T00:30:03.625Z,0.80
2019-06-26T00:31:03.621Z,0.90
2019-06-26T00:32:03.618Z,0.90
2019-06-26T00:33:03.601Z,0.90
2019-06-26T00:34:03.607Z,1.10
2019-06-26T00:35:03.593Z,0.80
2019-06-26T00:36:03.599Z,1.00
2019-06-26T00:37:03.582Z,0.90
2019-06-26T00:38:03.586Z,1.10
2019-06-26T00:39:03.568Z,0.80
2019-06-26T00:40:03.565Z,0.80
2019-06-26T00:41:03.564Z,1.00
2019-06-26T00:42:03.556Z,1.10
2019-06-26T00:43:03.556Z,0.90
2019-06-26T00:44:03.541Z,1.10
2019-06-26T00:45:03.544Z,1.00
2019-06-26T00:46:03.541Z,0.90
2019-06-26T00:47:03.527Z,0.90
2019-06-26T00:48:03.532Z,1.20
2019-06-26T00:49:03.519Z,1.10
2019-06-26T00:50:03.512Z,0.90
2019-06-26T00:51:03.501Z,1.00
2019-06-26T00:52:03.499Z,0.90
2019-06-26T00:53:03.499Z,0.70
2019-06-26T00:54:03.495Z,0.80
2019-06-26T00:55:03.484Z,0.90
2019-06-26T00:56:03.483Z,1.00
2019-06-26T00:57:03.472Z,1.10
2019-06-26T00:58:03.480Z,1.00
2019-06-26T00:59:03.455Z,0.90
2019-06-26T01:00:03.486Z,1.10
2019-06-26T01:01:03.444Z,0.80
2019-06-26T01:02:03.444Z,1.00
2019-06-26T01:03:03.431Z,0.90
2019-06-26T01:04:03.575Z,1.10
2019-06-26T01:05:03.420Z,1.00
2019-06-26T01:06:03.415Z,0.90
2019-06-26T01:07:03.403Z,0.90
2019-06-26T01:08:03.403Z,1.10
2019-06-26T01:09:03.395Z,1.00
2019-06-26T01:10:03.386Z,0.80
2019-06-26T01:11:03.383Z,1.00
2019-06-26T01:12:03.375Z,1.00
2019-06-26T01:13:03.389Z,0.90
2019-06-26T01:14:03.362Z,1.10
2019-06-26T01:15:03.368Z,1.00
2019-06-26T01:16:03.347Z,1.00
2019-06-26T01:17:03.343Z,0.70
2019-06-26T01:18:03.346Z,0.90
2019-06-26T01:19:03.330Z,0.80
2019-06-26T01:20:03.346Z,0.90
2019-06-26T01:21:03.309Z,1.10
2019-06-26T01:22:03.495Z,0.80
2019-06-26T01:23:03.299Z,0.90
2019-06-26T01:24:03.374Z,1.20
2019-06-26T01:25:03.297Z,1.10
2019-06-26T01:26:03.293Z,0.80
2019-06-26T01:27:03.291Z,1.10
2019-06-26T01:28:03.272Z,1.20
2019-06-26T01:29:03.258Z,1.10
2019-06-26T01:30:03.602Z,1.10
2019-06-26T01:31:03.257Z,0.90
2019-06-26T01:32:03.247Z,0.80
2019-06-26T01:33:03.261Z,1.00
2019-06-26T01:34:03.231Z,0.80
2019-06-26T01:35:03.223Z,0.90
2019-06-26T01:36:03.215Z,0.90
2019-06-26T01:37:03.210Z,1.10
2019-06-26T01:38:03.206Z,1.30
2019-06-26T01:39:03.239Z,0.90
2019-06-26T01:40:03.184Z,0.80
2019-06-26T01:41:03.185Z,1.00
2019-06-26T01:42:03.173Z,1.10
2019-06-26T01:43:03.165Z,0.90
2019-06-26T01:44:14.216Z,1.00
2019-06-26T01:45:03.151Z,0.80
2019-06-26T01:46:03.144Z,1.20
2019-06-26T01:47:03.152Z,0.80
2019-06-26T01:48:03.151Z,0.90
2019-06-26T01:49:03.125Z,0.90
2019-06-26T01:50:03.125Z,1.10
2019-06-26T01:51:03.120Z,1.10
2019-06-26T01:52:03.113Z,1.00
2019-06-26T01:53:03.100Z,1.00
2019-06-26T01:54:03.091Z,0.90
2019-06-26T01:55:03.086Z,0.80
2019-06-26T01:56:03.086Z,1.00
2019-06-26T01:57:03.099Z,1.10
2019-06-26T01:58:03.063Z,0.90
2019-06-26T01:59:03.064Z,1.10
2019-06-26T02:00:03.061Z,0.90
2019-06-26T02:01:03.119Z,1.00
2019-06-26T02:02:03.036Z,0.90
2019-06-26T02:03:03.029Z,0.90
2019-06-26T02:04:03.028Z,1.00
2019-06-26T02:05:03.018Z,1.00
2019-06-26T02:06:03.013Z,1.20
2019-06-26T02:07:03.004Z,0.90
2019-06-26T02:08:02.997Z,0.90
2019-06-26T02:09:02.999Z,0.90
2019-06-26T02:10:02.989Z,0.80
2019-06-26T02:11:02.978Z,1.00
2019-06-26T02:12:02.972Z,1.10
2019-06-26T02:13:02.956Z,1.20
2019-06-26T02:14:02.957Z,0.90
2019-06-26T02:15:02.962Z,0.90
2019-06-26T02:16:02.952Z,1.20
2019-06-26T02:17:02.944Z,0.80
2019-06-26T02:18:02.953Z,0.90
2019-06-26T02:19:02.926Z,0.90
2019-06-26T02:20:02.922Z,1.10
2019-06-26T02:21:02.922Z,0.70
2019-06-26T02:22:02.906Z,0.90
2019-06-26T02:23:02.913Z,0.90
2019-06-26T02:24:02.936Z,1.10
2019-06-26T02:25:02.882Z,1.10
2019-06-26T02:26:02.970Z,0.90
2019-06-26T02:27:02.877Z,0.80
2019-06-26T02:28:03.053Z,0.90
2019-06-26T02:29:02.856Z,0.90
2019-06-26T02:30:02.860Z,1.00
2019-06-26T02:31:02.848Z,1.00
2019-06-26T02:32:02.858Z,0.90
2019-06-26T02:33:02.832Z,0.90
2019-06-26T02:34:02.923Z,1.20
2019-06-26T02:35:02.817Z,0.90
2019-06-26T02:36:03.272Z,0.80
2019-06-26T02:37:02.805Z,1.00
2019-06-26T02:38:02.790Z,0.80
2019-06-26T02:39:02.807Z,0.80
2019-06-26T02:40:02.782Z,1.20
2019-06-26T02:42:02.773Z,0.90
2019-06-26T02:43:06.767Z,1.10
2019-06-26T02:44:02.768Z,1.00
2019-06-26T02:45:02.752Z,1.00
2019-06-26T02:46:02.775Z,0.80
2019-06-26T02:47:18.688Z,1.00
2019-06-26T02:48:02.734Z,1.20
2019-06-26T02:49:02.724Z,1.20
2019-06-26T02:50:02.709Z,1.40
2019-06-26T02:51:02.702Z,0.80
2019-06-26T02:52:02.697Z,1.20
2019-06-26T02:53:02.701Z,0.90
2019-06-26T02:54:02.696Z,1.00
2019-06-26T02:55:02.685Z,0.80
2019-06-26T02:56:02.679Z,1.00
2019-06-26T02:57:02.664Z,0.80
2019-06-26T02:58:02.662Z,0.80
2019-06-26T02:59:02.656Z,0.90
2019-06-26T03:00:02.815Z,1.00
2019-06-26T03:01:02.633Z,1.00
2019-06-26T03:02:02.641Z,0.80
2019-06-26T03:03:02.629Z,0.80
2019-06-26T03:04:02.624Z,0.90
2019-06-26T03:05:02.838Z,0.90
2019-06-26T03:06:02.607Z,0.70
2019-06-26T03:07:02.604Z,1.10
2019-06-26T03:08:02.601Z,0.80
2019-06-26T03:09:02.587Z,0.80
2019-06-26T03:10:02.582Z,1.30
2019-06-26T03:11:02.564Z,0.90
2019-06-26T03:12:02.565Z,1.00
2019-06-26T03:13:03.343Z,1.10
2019-06-26T03:14:02.550Z,1.20
2019-06-26T03:15:08.955Z,0.90
2019-06-26T03:16:02.541Z,1.00
2019-06-26T03:17:02.533Z,1.10
2019-06-26T03:18:02.520Z,1.10
2019-06-26T03:19:02.511Z,1.10
2019-06-26T03:20:02.525Z,0.80
2019-06-26T03:21:02.495Z,1.00
2019-06-26T03:22:02.497Z,1.00
2019-06-26T03:23:02.515Z,0.90
2019-06-26T03:24:02.486Z,0.80
2019-06-26T03:25:02.479Z,1.00
2019-06-26T03:26:02.475Z,1.10
2019-06-26T03:27:02.462Z,0.90
2019-06-26T03:28:02.461Z,1.10
2019-06-26T03:29:02.450Z,0.90
2019-06-26T03:30:02.463Z,0.80
2019-06-26T03:31:02.438Z,0.80
2019-06-26T03:32:02.443Z,0.90
2019-06-26T03:33:02.426Z,1.00
2019-06-26T03:34:02.421Z,0.80
2019-06-26T03:35:02.408Z,1.10
2019-06-26T03:36:02.395Z,0.80
2019-06-26T03:37:02.398Z,0.80
2019-06-26T03:38:02.386Z,0.90
2019-06-26T03:39:02.389Z,0.90
2019-06-26T03:40:02.374Z,1.00
2019-06-26T03:41:02.372Z,1.00
2019-06-26T03:42:02.396Z,1.00
2019-06-26T03:43:02.354Z,1.00
2019-06-26T03:44:02.341Z,0.80
2019-06-26T03:45:02.347Z,1.00
2019-06-26T03:46:02.331Z,0.80
2019-06-26T03:47:02.320Z,1.00
2019-06-26T03:48:02.323Z,0.80
2019-06-26T03:49:02.308Z,0.80
2019-06-26T03:50:02.816Z,1.20
2019-06-26T03:51:02.377Z,1.00
2019-06-26T03:52:02.291Z,0.90
2019-06-26T03:53:02.290Z,0.90
2019-06-26T03:54:02.278Z,1.10
2019-06-26T03:55:02.273Z,1.10
2019-06-26T03:56:02.271Z,0.90
2019-06-26T03:57:02.247Z,1.00
2019-06-26T03:58:02.243Z,0.80
2019-06-26T03:59:02.295Z,0.90
2019-06-26T04:00:02.237Z,0.80
2019-06-26T04:01:02.247Z,1.10
2019-06-26T04:02:02.225Z,1.10
2019-06-26T04:03:02.264Z,0.80
2019-06-26T04:04:02.210Z,1.10
2019-06-26T04:05:02.200Z,0.90
2019-06-26T04:06:02.194Z,0.80
2019-06-26T04:07:02.190Z,1.00
2019-06-26T04:08:02.174Z,1.00
2019-06-26T04:09:02.178Z,0.80
2019-06-26T04:10:02.170Z,1.10
2019-06-26T04:11:02.178Z,0.90
2019-06-26T04:12:02.169Z,0.80
2019-06-26T04:14:02.153Z,0.70
2019-06-26T04:15:02.134Z,1.00
2019-06-26T04:16:02.126Z,0.80
2019-06-26T04:17:02.328Z,1.20
2019-06-26T04:18:02.112Z,0.90
2019-06-26T04:19:02.098Z,0.70
2019-06-26T04:20:02.094Z,0.90
2019-06-26T04:21:02.090Z,0.80
2019-06-26T04:22:02.074Z,0.90
2019-06-26T04:23:02.072Z,0.90
2019-06-26T04:24:02.067Z,0.90
2019-06-26T04:25:02.062Z,0.70
2019-06-26T04:26:02.054Z,1.10
2019-06-26T04:27:02.045Z,0.80
2019-06-26T04:28:02.134Z,0.90
2019-06-26T04:29:02.031Z,0.90
2019-06-26T04:30:02.022Z,1.00
2019-06-26T04:31:02.016Z,0.90
2019-06-26T04:32:02.007Z,0.90
2019-06-26T04:33:02.048Z,1.00
2019-06-26T04:35:01.993Z,1.00
2019-06-26T04:36:01.973Z,1.00
2019-06-26T04:37:01.978Z,0.90
2019-06-26T04:38:01.967Z,0.90
2019-06-26T04:39:01.964Z,0.90
2019-06-26T04:40:01.949Z,0.80
2019-06-26T04:41:01.944Z,0.90
2019-06-26T04:42:01.939Z,0.90
2019-06-26T04:43:01.931Z,0.90
2019-06-26T04:44:01.941Z,0.80
2019-06-26T04:45:01.911Z,1.00
2019-06-26T04:46:01.927Z,0.80
2019-06-26T04:47:01.905Z,0.90
2019-06-26T04:48:01.989Z,0.80
2019-06-26T04:49:01.888Z,1.00
2019-06-26T04:50:01.885Z,1.10
2019-06-26T04:51:01.875Z,0.90
2019-06-26T04:52:01.857Z,0.80
2019-06-26T04:53:01.854Z,0.80
2019-06-26T04:54:01.851Z,0.90
2019-06-26T04:55:01.848Z,0.80
2019-06-26T04:56:01.838Z,0.80
2019-06-26T04:57:01.829Z,0.80
2019-06-26T04:58:01.825Z,1.10
2019-06-26T04:59:01.818Z,1.00
2019-06-26T05:00:01.820Z,0.90
2019-06-26T05:01:01.797Z,1.20
2019-06-26T05:02:01.790Z,0.80
2019-06-26T05:03:01.782Z,0.80
2019-06-26T05:04:01.826Z,1.00
2019-06-26T05:05:01.807Z,0.80
2019-06-26T05:06:01.764Z,0.80
2019-06-26T05:07:01.750Z,1.00
2019-06-26T05:08:01.752Z,0.90
2019-06-26T05:09:01.740Z,0.90
2019-06-26T05:10:01.725Z,0.90
2019-06-26T05:11:01.727Z,0.80
2019-06-26T05:12:01.733Z,1.00
2019-06-26T05:13:01.716Z,1.20
2019-06-26T05:14:01.709Z,0.90
2019-06-26T05:15:01.699Z,0.80
2019-06-26T05:16:14.369Z,1.10
2019-06-26T05:17:01.696Z,0.80
2019-06-26T05:18:01.683Z,0.90
2019-06-26T05:19:01.666Z,0.90
2019-06-26T05:20:01.661Z,0.80
2019-06-26T05:21:01.657Z,1.00
2019-06-26T05:22:01.650Z,0.70
2019-06-26T05:23:01.647Z,0.90
2019-06-26T05:24:01.629Z,1.20
2019-06-26T05:25:01.632Z,0.90
2019-06-26T05:26:01.620Z,0.80
2019-06-26T05:27:02.157Z,0.80
2019-06-26T05:28:01.600Z,0.70
2019-06-26T05:29:01.613Z,1.00
2019-06-26T05:30:01.595Z,1.00
2019-06-26T05:31:02.719Z,0.80
2019-06-26T05:32:01.571Z,0.80
2019-06-26T05:33:01.592Z,0.80
2019-06-26T05:34:01.569Z,1.00
2019-06-26T05:35:01.547Z,0.90
2019-06-26T05:36:01.541Z,0.80
2019-06-26T05:37:01.547Z,0.90
2019-06-26T05:38:01.528Z,0.70
2019-06-26T05:39:01.526Z,0.80
2019-06-26T05:40:01.507Z,1.00
2019-06-26T05:41:01.508Z,0.80
2019-06-26T05:42:01.510Z,0.90
2019-06-26T05:43:01.552Z,1.10
2019-06-26T05:44:01.488Z,0.70
2019-06-26T05:45:01.496Z,1.10
2019-06-26T05:46:01.472Z,0.90
2019-06-26T05:47:01.475Z,1.00
2019-06-26T05:49:01.471Z,1.00
2019-06-26T05:50:01.441Z,1.00
2019-06-26T05:51:01.429Z,0.80
2019-06-26T05:52:02.290Z,1.00
2019-06-26T05:53:01.408Z,0.80
2019-06-26T05:54:01.404Z,0.90
2019-06-26T05:55:01.398Z,0.80
2019-06-26T05:56:01.399Z,1.00
2019-06-26T05:57:01.385Z,1.00
2019-06-26T05:58:01.373Z,0.80
2019-06-26T05:59:01.365Z,0.80
2019-06-26T06:00:01.363Z,0.90
2019-06-26T06:01:01.349Z,1.00
2019-06-26T06:02:01.343Z,0.80
2019-06-26T06:03:01.337Z,0.70
2019-06-26T06:06:01.305Z,0.80
2019-06-26T06:07:01.329Z,0.70
2019-06-26T06:09:01.284Z,0.80
2019-06-26T06:10:01.284Z,0.80
2019-06-26T06:11:01.278Z,0.70
2019-06-26T06:12:01.264Z,0.80
2019-06-26T06:13:01.278Z,1.00
2019-06-26T06:14:01.260Z,0.90
2019-06-26T06:16:46.429Z,1.00
2019-06-26T06:17:32.276Z,0.80
2019-06-26T06:19:24.636Z,0.80
2019-06-26T06:20:24.607Z,1.00
2019-06-26T06:22:17.183Z,0.80
2019-06-26T06:23:16.934Z,0.80
2019-06-26T06:25:09.381Z,0.80
2019-06-26T06:26:09.260Z,0.90
2019-06-26T06:28:02.963Z,1.40
2019-06-26T06:29:01.600Z,1.10
2019-06-26T06:30:53.933Z,0.90
2019-06-26T06:31:53.929Z,0.90
2019-06-26T06:33:48.558Z,0.70
2019-06-26T06:34:46.261Z,0.80
2019-06-26T06:36:38.601Z,1.10
2019-06-26T06:37:38.959Z,1.20
2019-06-26T06:39:31.170Z,0.90
2019-06-26T06:40:30.929Z,0.80
2019-06-26T06:42:23.732Z,1.10
2019-06-26T06:43:23.628Z,0.80
2019-06-26T06:45:15.352Z,0.90
2019-06-26T06:46:15.133Z,0.80
2019-06-26T06:48:07.471Z,0.90
2019-06-26T06:49:07.827Z,0.90
2019-06-26T06:50:59.991Z,0.90
2019-06-26T06:51:59.788Z,0.80
2019-06-26T06:53:51.655Z,1.10
2019-06-26T06:54:51.635Z,0.90
2019-06-26T06:56:44.203Z,1.00
2019-06-26T06:57:43.980Z,1.00
2019-06-26T06:59:36.328Z,0.80
2019-06-26T07:00:36.303Z,0.80
2019-06-26T07:02:28.881Z,0.90
2019-06-26T07:03:29.008Z,0.80
2019-06-26T07:05:21.854Z,0.80
2019-06-26T07:06:21.488Z,0.70
2019-06-26T07:08:14.368Z,0.90
2019-06-26T07:09:13.819Z,1.00
2019-06-26T07:11:06.155Z,0.80
2019-06-26T07:12:06.150Z,0.80
2019-06-26T07:13:58.764Z,0.90
2019-06-26T07:14:58.507Z,0.90
2019-06-26T07:16:50.821Z,0.90
2019-06-26T07:17:50.802Z,0.80
2019-06-26T07:19:44.006Z,0.90
2019-06-26T07:20:44.713Z,1.10
2019-06-26T07:22:35.484Z,0.90
2019-06-26T07:23:35.940Z,0.80
2019-06-26T07:25:28.660Z,1.00
2019-06-26T07:26:27.789Z,0.70
2019-06-26T07:28:20.160Z,0.70
2019-06-26T07:29:20.132Z,0.70
2019-06-26T07:31:12.696Z,0.70
2019-06-26T07:32:12.464Z,0.80
2019-06-26T07:34:04.816Z,0.70
2019-06-26T07:35:04.805Z,0.70
2019-06-26T07:36:57.451Z,1.00
2019-06-26T07:38:00.117Z,1.10
2019-06-26T07:39:49.527Z,0.90
2019-06-26T07:40:49.816Z,0.80
2019-06-26T07:41:49.504Z,0.90
2019-06-26T07:42:49.511Z,0.70
2019-06-26T07:43:49.493Z,0.80
2019-06-26T07:44:49.494Z,0.80
2019-06-26T07:45:49.486Z,0.90
2019-06-26T07:46:49.464Z,0.60
2019-06-26T07:47:49.460Z,0.80
2019-06-26T07:48:49.465Z,1.10
2019-06-26T07:49:49.441Z,1.00
2019-06-26T07:50:49.430Z,1.10
2019-06-26T07:51:49.435Z,1.10
2019-06-26T07:52:49.476Z,0.80
2019-06-26T08:10:30.720Z,0.80
2019-06-26T08:11:30.425Z,0.90
2019-06-26T08:13:23.775Z,0.80
2019-06-26T08:14:23.768Z,0.80
2019-06-26T08:16:17.345Z,1.20
2019-06-26T08:17:17.111Z,0.90
2019-06-26T08:19:10.471Z,0.80
2019-06-26T08:20:10.465Z,0.90
2019-06-26T08:22:02.986Z,2.70
2019-06-26T08:23:02.816Z,14.00
2019-06-26T08:24:55.131Z,50.70
2019-06-26T08:25:55.114Z,17.30
2019-06-26T08:27:47.681Z,12.00
2019-06-26T08:28:47.500Z,7.90
2019-06-26T08:30:39.811Z,14.50
2019-06-26T08:31:39.771Z,8.50
2019-06-26T08:33:32.920Z,13.50
2019-06-26T08:34:32.106Z,8.20
2019-06-26T08:36:24.449Z,12.70
2019-06-26T08:37:24.448Z,16.80
2019-06-26T08:39:17.009Z,12.60
2019-06-26T08:40:16.777Z,15.50
2019-06-26T08:42:09.129Z,11.20
2019-06-26T08:43:09.111Z,11.30
2019-06-26T08:45:01.685Z,16.80
2019-06-26T08:46:01.473Z,15.40
2019-06-26T08:47:53.772Z,7.50
2019-06-26T08:48:53.763Z,8.80
2019-06-26T08:50:46.310Z,12.30
2019-06-26T08:51:46.088Z,9.10
2019-06-26T08:53:38.454Z,8.10
2019-06-26T08:54:38.466Z,8.00
2019-06-26T08:56:30.880Z,6.70
2019-06-26T08:57:30.773Z,5.50
2019-06-26T08:59:23.104Z,5.30
2019-06-26T09:00:23.102Z,6.50
2019-06-26T09:02:15.649Z,7.40
2019-06-26T09:03:15.417Z,6.90
2019-06-26T09:05:07.761Z,2.70
2019-06-26T09:06:07.755Z,4.50
2019-06-26T09:08:00.981Z,4.70
2019-06-26T09:09:00.612Z,5.10
2019-06-26T09:10:52.964Z,4.00
2019-06-26T09:11:52.948Z,4.80
2019-06-26T09:13:45.507Z,3.70
2019-06-26T09:14:45.288Z,4.00
2019-06-26T09:16:37.640Z,4.60
2019-06-26T09:17:37.634Z,3.40
2019-06-26T09:19:30.184Z,4.00
2019-06-26T09:20:29.963Z,3.50
2019-06-26T09:22:22.300Z,1.90
2019-06-26T09:23:22.277Z,2.60
2019-06-26T09:25:21.987Z,2.40
2019-06-26T09:26:14.614Z,1.90
2019-06-26T09:28:06.961Z,7.10
2019-06-26T09:29:06.938Z,67.80
2019-06-26T09:31:00.083Z,36.70
2019-06-26T09:31:59.271Z,34.60
2019-06-26T09:33:51.616Z,14.50
2019-06-26T09:34:51.608Z,13.80
2019-06-26T09:36:44.174Z,6.30
2019-06-26T09:37:43.965Z,9.10
2019-06-26T09:39:36.296Z,82.20
2019-06-26T09:40:36.289Z,38.20
2019-06-26T09:42:28.817Z,30.80
2019-06-26T09:43:28.614Z,35.70
2019-06-26T09:45:21.962Z,191.60
2019-06-26T09:46:21.956Z,152.30
2019-06-26T09:48:14.511Z,116.80
2019-06-26T09:49:14.285Z,113.20
2019-06-26T09:51:07.006Z,104.90
2019-06-26T09:52:07.013Z,92.30
2019-06-26T09:54:00.566Z,66.10
2019-06-26T09:55:00.339Z,64.80
2019-06-26T09:56:53.695Z,66.00
2019-06-26T09:57:53.678Z,65.20
2019-06-26T09:59:46.220Z,79.80
2019-06-26T10:00:46.019Z,88.40
2019-06-26T10:02:39.597Z,87.90
2019-06-26T10:03:39.347Z,90.30
2019-06-26T10:05:32.903Z,97.60
2019-06-26T10:06:32.692Z,93.50
2019-06-26T10:08:24.571Z,96.70
2019-06-26T10:09:24.542Z,92.90
2019-06-26T10:11:18.126Z,96.20
2019-06-26T10:12:17.909Z,95.60
2019-06-26T10:14:11.271Z,92.30
2019-06-26T10:15:11.265Z,98.20
2019-06-26T10:17:04.834Z,95.10
2019-06-26T10:18:04.604Z,87.20
2019-06-26T10:19:56.952Z,90.70
2019-06-26T10:20:56.931Z,85.10
2019-06-26T10:22:49.828Z,82.30
2019-06-26T10:23:49.628Z,82.90
2019-06-26T10:25:42.977Z,88.80
2019-06-26T10:26:42.974Z,84.30
2019-06-26T10:28:36.557Z,80.80
2019-06-26T10:29:36.309Z,84.30
2019-06-26T10:31:29.665Z,81.80
2019-06-26T10:32:29.653Z,78.90
2019-06-26T10:34:23.097Z,83.40
2019-06-26T10:35:22.994Z,80.30
2019-06-26T10:37:16.346Z,82.20
2019-06-26T10:38:16.335Z,80.70
2019-06-26T10:40:09.911Z,80.60
2019-06-26T10:41:09.694Z,83.10
2019-06-26T10:43:03.035Z,79.90
2019-06-26T10:44:03.063Z,78.50
2019-06-26T10:45:56.599Z,77.20
2019-06-26T10:46:56.366Z,73.70
2019-06-26T10:48:49.730Z,81.50
2019-06-26T10:49:49.709Z,81.30
2019-06-26T10:51:43.288Z,81.60
2019-06-26T10:52:43.059Z,81.30
2019-06-26T10:54:36.411Z,78.90
2019-06-26T10:55:36.394Z,82.00
2019-06-26T10:57:29.971Z,72.30
2019-06-26T10:58:29.736Z,73.80
2019-06-26T11:00:22.474Z,77.30
2019-06-26T11:01:22.458Z,77.70
2019-06-26T11:03:16.030Z,76.70
2019-06-26T11:04:15.805Z,78.90
2019-06-26T11:06:09.167Z,80.90
2019-06-26T11:07:09.144Z,79.30
2019-06-26T11:09:03.218Z,74.80
2019-06-26T11:10:03.012Z,72.60
2019-06-26T11:11:56.386Z,69.50
2019-06-26T11:12:56.364Z,70.30
2019-06-26T11:14:49.936Z,72.70
2019-06-26T11:15:49.709Z,72.00
2019-06-26T11:17:43.085Z,68.40
2019-06-26T11:18:43.047Z,70.60
2019-06-26T11:20:36.616Z,73.90
2019-06-26T11:21:36.388Z,72.40
2019-06-26T11:23:29.748Z,72.80
2019-06-26T11:24:29.737Z,72.50
2019-06-26T11:26:23.278Z,72.30
2019-06-26T11:27:23.079Z,74.40
2019-06-26T11:29:16.434Z,73.60
2019-06-26T11:30:16.417Z,70.90
2019-06-26T11:32:09.871Z,67.70
2019-06-26T11:33:09.774Z,69.10
2019-06-26T11:35:03.121Z,68.90
2019-06-26T11:36:03.104Z,70.20
2019-06-26T11:37:56.692Z,64.30
2019-06-26T11:38:56.443Z,67.00
2019-06-26T11:40:49.800Z,63.10
2019-06-26T11:41:49.785Z,65.40
2019-06-26T11:43:43.360Z,64.00
2019-06-26T11:44:43.127Z,68.30
2019-06-26T11:46:37.151Z,64.20
2019-06-26T11:47:36.662Z,67.20
2019-06-26T11:49:30.205Z,65.10
2019-06-26T11:50:29.981Z,61.30
2019-06-26T11:52:23.350Z,66.70
2019-06-26T11:53:23.333Z,68.00
2019-06-26T11:55:16.896Z,64.90
2019-06-26T11:56:16.703Z,64.90
2019-06-26T11:58:10.038Z,64.10
2019-06-26T11:59:10.021Z,63.20
2019-06-26T12:01:03.562Z,66.70
2019-06-26T12:02:03.352Z,65.00
2019-06-26T12:03:56.713Z,65.20
2019-06-26T12:04:56.697Z,65.40
2019-06-26T12:06:50.162Z,62.60
2019-06-26T12:07:50.032Z,60.90
2019-06-26T12:09:43.424Z,66.80
2019-06-26T12:10:43.376Z,65.40
2019-06-26T12:12:36.343Z,64.00
2019-06-26T12:13:36.114Z,63.20
2019-06-26T12:15:29.479Z,64.00
2019-06-26T12:16:29.478Z,61.40
2019-06-26T12:18:22.034Z,59.00
2019-06-26T12:19:23.524Z,59.40
2019-06-26T12:21:14.277Z,59.20
2019-06-26T12:22:14.268Z,62.10
2019-06-26T12:24:08.213Z,60.90
2019-06-26T12:25:07.991Z,55.80
2019-06-26T12:27:01.343Z,57.20
2019-06-26T12:28:01.337Z,56.70
2019-06-26T12:29:54.900Z,61.60
2019-06-26T12:30:54.672Z,59.60
2019-06-26T12:33:02.212Z,57.80
2019-06-26T12:33:48.015Z,54.20
2019-06-26T12:35:41.628Z,55.00
2019-06-26T12:36:41.356Z,57.40
2019-06-26T12:38:34.750Z,54.80
2019-06-26T12:39:34.711Z,56.40
2019-06-26T12:41:28.270Z,54.40
2019-06-26T12:42:28.048Z,53.80
2019-06-26T12:44:20.855Z,53.40
2019-06-26T12:45:20.797Z,55.50
2019-06-26T12:47:14.362Z,54.70
2019-06-26T12:48:16.327Z,56.60
2019-06-26T12:50:07.671Z,54.50
2019-06-26T12:51:07.472Z,54.00
2019-06-26T12:53:01.021Z,54.00
2019-06-26T12:54:00.815Z,53.90
2019-06-26T12:55:54.165Z,52.60
2019-06-26T12:56:54.145Z,53.20
2019-06-26T12:58:46.712Z,53.40
2019-06-26T12:59:56.503Z,54.90
2019-06-26T13:01:39.175Z,52.40
2019-06-26T13:02:39.158Z,54.80
2019-06-26T13:04:32.735Z,54.50
2019-06-26T13:05:32.503Z,51.90
2019-06-26T13:07:25.865Z,50.60
2019-06-26T13:08:25.854Z,49.80
2019-06-26T13:10:19.947Z,52.70
2019-06-26T13:11:19.713Z,52.60
2019-06-26T13:13:13.070Z,50.20
2019-06-26T13:14:13.061Z,48.10
2019-06-26T13:16:06.647Z,50.50
2019-06-26T13:17:06.397Z,50.40
2019-06-26T13:18:59.788Z,49.70
2019-06-26T13:19:59.754Z,49.70
2019-06-26T13:21:53.321Z,50.00
2019-06-26T13:22:53.128Z,50.00
2019-06-26T13:24:46.461Z,51.10
2019-06-26T13:25:46.434Z,50.00
2019-06-26T13:27:40.014Z,49.60
2019-06-26T13:28:39.767Z,49.60
2019-06-26T13:30:33.130Z,51.30
2019-06-26T13:31:33.117Z,49.60
2019-06-26T13:33:26.560Z,48.30
2019-06-26T13:34:26.454Z,49.50
2019-06-26T13:36:19.821Z,46.70
2019-06-26T13:37:19.796Z,45.60
2019-06-26T13:39:12.432Z,48.60
2019-06-26T13:40:12.138Z,49.00
2019-06-26T13:42:05.495Z,49.40
2019-06-26T13:43:05.476Z,48.50
2019-06-26T13:44:58.394Z,46.00
2019-06-26T13:45:58.974Z,47.70
2019-06-26T13:47:51.533Z,44.50
2019-06-26T13:48:51.508Z,45.60
2019-06-26T13:50:44.969Z,44.20
2019-06-26T13:51:44.857Z,45.10
2019-06-26T13:53:37.192Z,47.00
2019-06-26T13:54:37.184Z,46.90
2019-06-26T13:56:29.736Z,46.60
2019-06-26T13:57:29.507Z,46.80
2019-06-26T13:59:22.858Z,44.40
2019-06-26T14:00:22.873Z,46.10
2019-06-26T14:02:19.729Z,45.80
2019-06-26T14:03:16.198Z,44.50
2019-06-26T14:05:09.545Z,43.90
2019-06-26T14:06:09.544Z,42.40
2019-06-26T14:08:03.115Z,47.60
2019-06-26T14:09:02.885Z,43.00
2019-06-26T14:10:56.234Z,43.70
2019-06-26T14:11:56.217Z,43.10
2019-06-26T14:13:49.791Z,49.00
2019-06-26T14:14:57.360Z,44.20
2019-06-26T14:16:42.904Z,43.30
2019-06-26T14:17:42.896Z,41.90
2019-06-26T14:19:36.456Z,42.80
2019-06-26T14:20:36.240Z,43.30
2019-06-26T14:22:28.931Z,41.10
2019-06-26T14:23:28.933Z,43.20
2019-06-26T14:25:22.492Z,41.30
2019-06-26T14:26:22.267Z,42.90
2019-06-26T14:28:15.619Z,43.30
2019-06-26T14:29:20.723Z,42.40
2019-06-26T14:31:09.067Z,42.80
2019-06-26T14:32:08.951Z,42.70
2019-06-26T14:34:02.309Z,43.50
2019-06-26T14:35:02.298Z,42.20
2019-06-26T14:36:55.881Z,42.50
2019-06-26T14:37:55.651Z,42.40
2019-06-26T14:39:48.994Z,43.10
2019-06-26T14:40:48.984Z,42.60
2019-06-26T14:42:41.423Z,40.50
2019-06-26T14:43:41.302Z,39.00
2019-06-26T14:45:34.656Z,42.60
2019-06-26T14:46:34.652Z,44.30
2019-06-26T14:48:28.238Z,40.90
2019-06-26T14:49:28.019Z,41.30
2019-06-26T14:51:21.348Z,40.70
2019-06-26T14:52:21.333Z,42.70
2019-06-26T14:54:14.890Z,41.60
2019-06-26T14:55:14.689Z,41.00
2019-06-26T14:57:08.040Z,38.30
2019-06-26T14:58:08.036Z,40.30
2019-06-26T15:00:01.576Z,38.00
2019-06-26T15:01:01.371Z,39.40
2019-06-26T15:02:54.721Z,38.60
2019-06-26T15:03:54.719Z,39.80
2019-06-26T15:05:48.277Z,40.70
2019-06-26T15:06:48.053Z,39.70
2019-06-26T15:08:41.423Z,35.90
2019-06-26T15:09:41.389Z,38.80
2019-06-26T15:11:35.502Z,42.30
2019-06-26T15:12:35.270Z,40.90
2019-06-26T15:14:28.623Z,40.20
2019-06-26T15:15:28.617Z,38.60
2019-06-26T15:17:22.193Z,37.20
2019-06-26T15:18:21.948Z,35.80
2019-06-26T15:20:14.296Z,38.10
2019-06-26T15:21:14.275Z,37.00
2019-06-26T15:23:07.730Z,37.70
2019-06-26T15:24:07.626Z,38.90
2019-06-26T15:26:00.970Z,38.00
2019-06-26T15:27:00.963Z,37.70
2019-06-26T15:28:54.512Z,39.20
2019-06-26T15:29:54.297Z,37.90
2019-06-26T15:31:47.651Z,36.80
2019-06-26T15:32:47.646Z,37.40
2019-06-26T15:34:41.213Z,37.80
2019-06-26T15:35:40.986Z,37.10
2019-06-26T15:37:34.355Z,36.90
2019-06-26T15:38:34.327Z,34.40
2019-06-26T15:40:27.916Z,37.50
2019-06-26T15:41:27.669Z,35.90
2019-06-26T15:43:21.027Z,38.00
2019-06-26T15:44:21.053Z,37.00
2019-06-26T15:46:14.587Z,34.80
2019-06-26T15:47:14.354Z,34.80
2019-06-26T15:49:07.725Z,35.20
2019-06-26T15:50:10.616Z,33.80
2019-06-26T15:52:14.418Z,32.60
2019-06-26T15:53:01.038Z,35.10
2019-06-26T15:54:54.449Z,37.30
2019-06-26T15:55:54.394Z,36.80
2019-06-26T15:57:47.298Z,35.40
2019-06-26T15:58:47.069Z,35.50
2019-06-26T16:00:40.412Z,35.80
2019-06-26T16:01:40.408Z,35.70
2019-06-26T16:03:33.382Z,35.10
2019-06-26T16:04:35.188Z,35.80
2019-06-26T16:06:25.473Z,35.90
2019-06-26T16:07:25.459Z,34.80
2019-06-26T16:09:19.041Z,34.70
2019-06-26T16:10:18.812Z,33.50
2019-06-26T16:12:12.160Z,33.30
2019-06-26T16:13:12.143Z,32.70
2019-06-26T16:15:05.724Z,34.30
2019-06-26T16:16:05.488Z,34.90
2019-06-26T16:17:58.843Z,32.50
2019-06-26T16:18:58.834Z,33.80
2019-06-26T16:20:51.621Z,36.00
2019-06-26T16:21:51.508Z,33.90
2019-06-26T16:23:44.861Z,32.90
2019-06-26T16:24:44.853Z,34.50
2019-06-26T16:26:38.424Z,33.70
2019-06-26T16:27:38.192Z,33.80
2019-06-26T16:29:31.546Z,31.00
2019-06-26T16:30:31.545Z,32.20
2019-06-26T16:32:25.088Z,31.60